createdAt,value
2017-11-06T00:00:27.362Z,71.59
2017-11-06T00:02:56.017Z,72.45
2017-11-06T00:05:23.407Z,72.91
2017-11-06T00:07:50.837Z,73.21
2017-11-06T00:10:18.218Z,73.34
2017-11-06T00:12:45.674Z,73.64
2017-11-06T00:15:13.106Z,72.90
2017-11-06T00:17:40.489Z,72.08
2017-11-06T00:20:07.950Z,71.36
2017-11-06T00:22:35.329Z,71.69
2017-11-06T00:25:02.777Z,72.55
2017-11-06T00:27:30.179Z,72.69
2017-11-06T00:29:57.598Z,72.18
2017-11-06T00:32:24.992Z,71.60
2017-11-06T00:34:52.415Z,71.29
2017-11-06T00:37:19.802Z,72.04
2017-11-06T00:39:47.221Z,73.04
2017-11-06T00:42:14.633Z,73.65
2017-11-06T00:44:42.056Z,74.17
2017-11-06T00:47:09.489Z,74.55
2017-11-06T00:49:36.903Z,74.85
2017-11-06T00:52:04.343Z,74.96
2017-11-06T00:54:31.750Z,74.45
2017-11-06T00:56:59.193Z,74.29
2017-11-06T00:59:27.375Z,73.66
2017-11-06T01:01:54.804Z,72.79
2017-11-06T01:04:22.199Z,72.60
2017-11-06T01:06:49.618Z,72.81
2017-11-06T01:09:17.015Z,72.81
2017-11-06T01:11:44.436Z,72.63
2017-11-06T01:14:11.821Z,72.60
2017-11-06T01:16:39.256Z,72.50
2017-11-06T01:19:06.704Z,72.21
2017-11-06T01:21:34.122Z,72.20
2017-11-06T01:24:01.559Z,72.13
2017-11-06T01:28:55.998Z,72.47
2017-11-06T01:31:23.401Z,73.54
2017-11-06T01:33:50.828Z,74.04
2017-11-06T01:36:18.340Z,74.40
2017-11-06T01:38:45.801Z,74.79
2017-11-06T01:41:13.194Z,74.95
2017-11-06T01:43:40.603Z,75.26
2017-11-06T01:46:08.015Z,75.11
2017-11-06T01:48:35.423Z,74.67
2017-11-06T01:51:02.915Z,74.44
2017-11-06T01:53:30.356Z,74.39
2017-11-06T01:55:57.772Z,74.21
2017-11-06T01:58:25.177Z,74.34
2017-11-06T02:00:52.584Z,74.20
2017-11-06T02:03:19.975Z,74.39
2017-11-06T02:05:47.413Z,74.36
2017-11-06T02:08:14.804Z,74.56
2017-11-06T02:10:42.196Z,75.18
2017-11-06T02:13:09.616Z,75.35
2017-11-06T02:15:37.034Z,75.58
2017-11-06T02:18:04.413Z,75.53
2017-11-06T02:20:31.855Z,75.49
2017-11-06T02:22:59.256Z,75.47
2017-11-06T02:25:26.668Z,74.75
2017-11-06T02:27:54.085Z,73.99
2017-11-06T02:30:21.486Z,73.96
2017-11-06T02:32:48.934Z,74.65
2017-11-06T02:35:16.324Z,75.28
2017-11-06T02:37:43.756Z,75.66
2017-11-06T02:40:11.139Z,75.63
2017-11-06T02:42:38.607Z,75.39
2017-11-06T02:45:06.026Z,75.12
2017-11-06T02:47:33.459Z,75.06
2017-11-06T02:50:00.865Z,75.19
2017-11-06T02:52:28.313Z,74.82
2017-11-06T02:54:55.708Z,75.10
2017-11-06T02:57:23.095Z,75.53
2017-11-06T02:59:50.520Z,76.08
2017-11-06T03:02:18.756Z,76.08
2017-11-06T03:04:46.171Z,75.83
2017-11-06T03:07:13.575Z,75.49
2017-11-06T03:09:40.988Z,75.42
2017-11-06T03:12:08.404Z,76.34
2017-11-06T03:14:35.816Z,76.53
2017-11-06T03:17:03.216Z,77.07
2017-11-06T03:19:30.730Z,77.36
2017-11-06T03:21:58.131Z,77.38
2017-11-06T03:24:25.564Z,77.21
2017-11-06T03:26:53.003Z,77.47
2017-11-06T03:29:20.405Z,77.76
2017-11-06T03:31:47.847Z,77.48
2017-11-06T03:34:15.252Z,77.50
2017-11-06T03:36:42.681Z,76.91
2017-11-06T03:39:10.100Z,76.64
2017-11-06T03:41:37.526Z,76.37
2017-11-06T03:44:04.912Z,76.16
2017-11-06T03:46:32.319Z,75.73
2017-11-06T03:48:59.716Z,75.61
2017-11-06T03:51:27.132Z,75.24
2017-11-06T03:53:54.534Z,74.46
2017-11-06T03:56:21.916Z,74.16
2017-11-06T03:58:49.357Z,74.31
2017-11-06T04:01:16.776Z,74.48
2017-11-06T04:03:44.212Z,74.44
2017-11-06T04:06:11.610Z,74.75
2017-11-06T04:08:39.024Z,75.18
2017-11-06T04:11:06.425Z,75.55
2017-11-06T04:13:33.846Z,75.46
2017-11-06T04:16:01.267Z,75.62
2017-11-06T04:18:29.379Z,75.40
2017-11-06T04:20:56.807Z,75.18
2017-11-06T04:23:26.008Z,75.25
2017-11-06T04:25:53.431Z,75.06
2017-11-06T04:28:20.826Z,74.74
2017-11-06T04:30:48.272Z,74.49
2017-11-06T04:33:15.687Z,74.34
2017-11-06T04:35:43.099Z,74.56
2017-11-06T04:38:10.495Z,75.80
2017-11-06T04:40:37.916Z,76.14
2017-11-06T04:43:05.311Z,75.89
2017-11-06T04:45:32.740Z,75.41
2017-11-06T04:48:00.135Z,74.57
2017-11-06T04:50:27.524Z,74.13
2017-11-06T04:52:54.940Z,73.94
2017-11-06T04:55:22.327Z,74.18
2017-11-06T04:57:49.746Z,74.11
2017-11-06T05:00:17.140Z,73.42
2017-11-06T05:02:44.576Z,73.10
2017-11-06T05:05:11.975Z,73.53
2017-11-06T05:07:39.399Z,74.05
2017-11-06T05:10:06.815Z,74.19
2017-11-06T05:12:34.208Z,73.97
2017-11-06T05:15:01.628Z,73.51
2017-11-06T05:17:29.015Z,73.56
2017-11-06T05:19:56.439Z,73.69
2017-11-06T05:22:23.820Z,73.61
2017-11-06T05:24:51.257Z,73.52
2017-11-06T05:27:18.645Z,74.02
2017-11-06T05:29:46.077Z,73.67
2017-11-06T05:32:13.477Z,72.76
2017-11-06T05:34:40.882Z,73.11
2017-11-06T05:37:08.268Z,73.77
2017-11-06T05:39:35.719Z,74.51
2017-11-06T05:42:03.144Z,74.36
2017-11-06T05:44:30.571Z,74.35
2017-11-06T05:46:57.988Z,74.69
2017-11-06T05:49:25.407Z,74.62
2017-11-06T05:51:52.803Z,74.70
2017-11-06T05:54:20.235Z,74.83
2017-11-06T05:56:48.553Z,74.41
2017-11-06T05:59:15.980Z,74.38
2017-11-06T06:01:43.368Z,74.56
2017-11-06T06:04:10.797Z,74.32
2017-11-06T06:06:39.040Z,73.64
2017-11-06T06:09:06.436Z,73.77
2017-11-06T06:11:33.873Z,73.38
2017-11-06T06:14:01.249Z,73.45
2017-11-06T06:16:28.669Z,73.87
2017-11-06T06:18:56.087Z,73.82
2017-11-06T06:21:23.472Z,73.74
2017-11-06T06:23:50.922Z,73.67
2017-11-06T06:26:18.396Z,73.34
2017-11-06T06:28:45.911Z,73.60
2017-11-06T06:31:13.306Z,73.63
2017-11-06T06:33:40.729Z,73.49
2017-11-06T06:36:08.142Z,73.62
2017-11-06T06:38:35.576Z,91.87
2017-11-06T06:41:03.007Z,89.62
2017-11-06T06:43:30.428Z,75.94
2017-11-06T06:45:57.893Z,69.58
2017-11-06T06:48:25.307Z,65.09
2017-11-06T06:50:52.793Z,65.01
2017-11-06T06:53:20.200Z,62.83
2017-11-06T06:55:47.652Z,54.06
2017-11-06T06:58:15.057Z,58.70
2017-11-06T07:00:42.742Z,62.73
2017-11-06T07:03:14.947Z,65.50
2017-11-06T07:05:42.411Z,67.47
2017-11-06T07:08:09.829Z,68.64
2017-11-06T07:10:37.880Z,69.58
2017-11-06T07:13:05.280Z,70.25
2017-11-06T07:15:32.719Z,70.74
2017-11-06T07:18:00.099Z,71.67
2017-11-06T07:20:27.733Z,72.48
2017-11-06T07:22:55.165Z,73.36
2017-11-06T07:25:22.559Z,74.73
2017-11-06T07:27:50.890Z,75.12
2017-11-06T07:30:18.289Z,75.07
2017-11-06T07:32:45.707Z,74.86
2017-11-06T07:35:13.152Z,74.99
2017-11-06T07:37:40.576Z,74.74
2017-11-06T07:40:07.995Z,74.43
2017-11-06T07:42:36.815Z,73.90
2017-11-06T07:45:06.766Z,74.17
2017-11-06T07:47:34.330Z,74.54
2017-11-06T07:50:04.826Z,75.28
2017-11-06T07:52:32.456Z,74.99
2017-11-06T07:55:00.029Z,74.34
2017-11-06T07:57:33.050Z,73.51
2017-11-06T08:00:03.064Z,73.45
2017-11-06T08:02:32.493Z,73.04
2017-11-06T08:05:03.281Z,73.55
2017-11-06T08:07:30.676Z,73.69
2017-11-06T08:09:58.113Z,73.36
2017-11-06T08:12:28.087Z,73.54
2017-11-06T08:14:55.607Z,73.22
2017-11-06T08:17:24.041Z,73.59
2017-11-06T08:19:52.296Z,74.04
2017-11-06T08:22:19.871Z,74.31
2017-11-06T08:24:47.255Z,74.38
2017-11-06T08:27:14.870Z,74.03
2017-11-06T08:29:42.356Z,73.70
2017-11-06T08:32:12.620Z,73.79
2017-11-06T08:34:40.039Z,74.03
2017-11-06T08:37:07.545Z,73.66
2017-11-06T08:39:34.960Z,73.40
2017-11-06T08:42:02.372Z,72.95
2017-11-06T08:44:29.800Z,73.00
2017-11-06T08:46:57.228Z,72.87
2017-11-06T08:49:25.613Z,73.86
2017-11-06T08:51:53.099Z,73.76
2017-11-06T08:54:20.490Z,73.51
2017-11-06T08:56:48.834Z,73.04
2017-11-06T08:59:16.296Z,72.63
2017-11-06T09:01:43.767Z,72.81
2017-11-06T09:04:11.196Z,72.84
2017-11-06T09:06:38.596Z,72.07
2017-11-06T09:09:06.041Z,72.01
2017-11-06T09:11:33.460Z,71.78
2017-11-06T09:14:00.947Z,71.62
2017-11-06T09:16:28.406Z,70.94
2017-11-06T09:18:55.840Z,70.94
2017-11-06T09:21:24.028Z,71.51
2017-11-06T09:23:51.433Z,71.35
2017-11-06T09:26:18.860Z,71.07
2017-11-06T09:28:56.213Z,71.23
2017-11-06T09:31:23.690Z,71.09
2017-11-06T09:33:51.128Z,71.00
2017-11-06T09:36:18.625Z,70.91
2017-11-06T09:38:46.041Z,71.20
2017-11-06T09:41:13.499Z,71.81
2017-11-06T09:43:40.935Z,72.13
2017-11-06T09:46:08.563Z,71.91
2017-11-06T09:48:35.987Z,72.14
2017-11-06T09:51:03.429Z,71.62
2017-11-06T09:53:30.847Z,71.52
2017-11-06T09:56:00.896Z,70.51
2017-11-06T09:58:28.459Z,70.70
2017-11-06T10:00:55.914Z,70.17
2017-11-06T10:06:02.090Z,68.66
2017-11-06T10:08:29.627Z,68.42
2017-11-06T10:10:57.022Z,68.29
2017-11-06T10:13:24.471Z,68.02
2017-11-06T10:15:51.867Z,68.96
2017-11-06T10:18:20.214Z,68.99
2017-11-06T10:20:47.837Z,68.73
2017-11-06T10:23:15.269Z,68.03
2017-11-06T10:25:43.409Z,67.62
2017-11-06T10:28:10.824Z,67.51
2017-11-06T10:30:38.224Z,66.63
2017-11-06T10:33:12.741Z,67.32
2017-11-06T10:35:40.137Z,66.71
2017-11-06T10:38:07.547Z,66.28
2017-11-06T10:40:34.983Z,66.16
2017-11-06T10:43:02.389Z,64.90
2017-11-06T10:45:32.074Z,64.88
2017-11-06T10:48:00.959Z,65.48
2017-11-06T10:53:09.802Z,64.51
2017-11-06T10:55:39.488Z,64.09
2017-11-06T10:58:09.103Z,62.94
2017-11-06T11:00:36.536Z,62.22
2017-11-06T11:03:03.931Z,61.67
2017-11-06T11:05:31.370Z,62.13
2017-11-06T11:07:58.803Z,61.02
2017-11-06T11:10:26.232Z,61.22
2017-11-06T11:12:53.641Z,61.39
2017-11-06T11:15:21.069Z,61.75
2017-11-06T11:17:48.488Z,62.38
2017-11-06T11:20:15.963Z,61.85
2017-11-06T11:22:43.375Z,62.52
2017-11-06T11:25:10.795Z,63.28
2017-11-06T11:27:38.215Z,63.29
2017-11-06T11:30:05.621Z,63.60
2017-11-06T11:32:33.101Z,63.73
2017-11-06T11:35:00.488Z,64.04
2017-11-06T11:37:27.928Z,64.10
2017-11-06T11:39:55.362Z,64.31
2017-11-06T11:42:22.823Z,64.02
2017-11-06T11:44:50.265Z,63.70
2017-11-06T11:47:17.735Z,63.29
2017-11-06T11:49:45.158Z,63.09
2017-11-06T11:52:12.630Z,63.19
2017-11-06T11:54:40.079Z,63.45
2017-11-06T11:57:07.530Z,62.75
2017-11-06T11:59:34.992Z,62.04
2017-11-06T12:02:03.707Z,61.86
2017-11-06T12:04:31.934Z,60.88
2017-11-06T12:06:59.381Z,61.23
2017-11-06T12:09:26.837Z,60.73
2017-11-06T12:11:54.260Z,61.11
2017-11-06T12:14:21.705Z,61.10
2017-11-06T12:16:49.125Z,61.83
2017-11-06T12:19:16.567Z,62.63
2017-11-06T12:21:44.184Z,62.37
2017-11-06T12:24:11.602Z,62.06
2017-11-06T12:26:39.086Z,61.78
2017-11-06T12:29:06.557Z,61.70
2017-11-06T12:31:33.969Z,61.79
2017-11-06T12:34:01.384Z,62.63
2017-11-06T12:36:28.887Z,62.39
2017-11-06T12:38:56.424Z,62.14
2017-11-06T12:41:23.866Z,61.41
2017-11-06T12:43:52.632Z,61.02
2017-11-06T12:46:20.081Z,61.37
2017-11-06T12:48:47.626Z,60.95
2017-11-06T12:51:15.109Z,60.93
2017-11-06T12:53:42.534Z,60.92
2017-11-06T12:56:09.948Z,61.28
2017-11-06T12:58:37.384Z,61.62
2017-11-06T13:01:04.802Z,61.73
2017-11-06T13:03:32.261Z,61.78
2017-11-06T13:05:59.708Z,61.75
2017-11-06T13:08:27.424Z,61.92
2017-11-06T13:10:54.937Z,61.74
2017-11-06T13:13:22.371Z,61.97
2017-11-06T13:15:49.777Z,61.49
2017-11-06T13:18:17.245Z,61.28
2017-11-06T13:20:44.671Z,60.92
2017-11-06T13:23:12.104Z,61.05
2017-11-06T13:25:39.492Z,61.14
2017-11-06T13:28:06.948Z,60.95
2017-11-06T13:30:34.345Z,59.71
2017-11-06T13:33:01.756Z,59.95
2017-11-06T13:35:29.674Z,60.13
2017-11-06T13:37:57.336Z,60.41
2017-11-06T13:40:24.779Z,59.41
2017-11-06T13:42:52.237Z,59.73
2017-11-06T13:45:19.661Z,60.07
2017-11-06T13:47:47.068Z,60.45
2017-11-06T13:50:14.477Z,60.07
2017-11-06T13:52:42.057Z,59.97
2017-11-06T13:55:09.476Z,60.25
2017-11-06T13:57:36.896Z,60.40
2017-11-06T14:00:04.365Z,60.81
2017-11-06T14:02:31.781Z,60.80
2017-11-06T14:04:59.212Z,60.73
2017-11-06T14:07:26.636Z,61.07
2017-11-06T14:09:54.071Z,61.60
2017-11-06T14:12:21.489Z,62.17
2017-11-06T14:14:48.888Z,61.94
2017-11-06T14:17:16.349Z,61.82
2017-11-06T14:19:43.739Z,61.92
2017-11-06T14:22:11.152Z,61.67
2017-11-06T14:24:39.493Z,61.95
2017-11-06T14:27:06.937Z,62.51
2017-11-06T14:29:34.351Z,62.43
2017-11-06T14:32:01.803Z,63.41
2017-11-06T14:34:29.211Z,63.92
2017-11-06T14:36:56.653Z,63.60
2017-11-06T14:39:24.081Z,63.22
2017-11-06T14:41:51.490Z,63.82
2017-11-06T14:44:19.004Z,63.26
2017-11-06T14:46:46.399Z,63.40
2017-11-06T14:49:13.830Z,63.58
2017-11-06T14:51:41.234Z,64.27
2017-11-06T14:54:08.668Z,64.32
2017-11-06T14:56:36.093Z,64.47
2017-11-06T14:59:03.535Z,64.14
2017-11-06T15:01:30.976Z,63.92
2017-11-06T15:03:58.434Z,64.30
2017-11-06T15:06:25.891Z,64.81
2017-11-06T15:08:53.307Z,64.95
2017-11-06T15:11:21.207Z,64.84
2017-11-06T15:13:48.627Z,65.06
2017-11-06T15:16:16.068Z,64.62
2017-11-06T15:18:43.489Z,64.79
2017-11-06T15:21:10.932Z,64.72
2017-11-06T15:23:38.348Z,64.63
2017-11-06T15:26:05.752Z,64.61
2017-11-06T15:28:33.170Z,64.62
2017-11-06T15:31:00.604Z,64.42
2017-11-06T15:33:28.071Z,64.28
2017-11-06T15:35:55.480Z,64.19
2017-11-06T15:38:22.922Z,64.17
2017-11-06T15:40:50.344Z,64.11
2017-11-06T15:43:17.789Z,64.20
2017-11-06T15:45:45.189Z,64.47
2017-11-06T15:48:12.658Z,64.64
2017-11-06T15:50:40.091Z,64.65
2017-11-06T15:53:07.584Z,64.78
2017-11-06T15:55:35.011Z,64.89
2017-11-06T15:58:02.637Z,64.64
2017-11-06T16:00:30.057Z,64.50
2017-11-06T16:02:57.479Z,64.82
2017-11-06T16:05:24.900Z,65.08
2017-11-06T16:07:52.295Z,64.75
2017-11-06T16:10:19.740Z,65.19
2017-11-06T16:12:47.135Z,65.53
2017-11-06T16:15:14.580Z,65.85
2017-11-06T16:17:42.001Z,66.01
2017-11-06T16:20:09.424Z,66.02
2017-11-06T16:22:36.816Z,66.25
2017-11-06T16:25:04.237Z,66.40
2017-11-06T16:27:31.855Z,66.25
2017-11-06T16:29:59.356Z,66.01
2017-11-06T16:32:26.793Z,65.89
2017-11-06T16:34:54.264Z,65.97
2017-11-06T16:37:21.651Z,65.92
2017-11-06T16:39:49.146Z,66.25
2017-11-06T16:42:16.662Z,66.29
2017-11-06T16:44:44.169Z,65.92
2017-11-06T16:47:11.569Z,65.87
2017-11-06T16:49:39.012Z,65.79
2017-11-06T16:52:06.464Z,66.08
2017-11-06T16:54:33.888Z,65.69
2017-11-06T16:57:01.288Z,65.42
2017-11-06T16:59:28.764Z,65.15
2017-11-06T17:01:56.205Z,64.56
2017-11-06T17:04:23.649Z,64.43
2017-11-06T17:06:51.039Z,63.97
2017-11-06T17:09:19.284Z,63.66
2017-11-06T17:11:46.744Z,63.65
2017-11-06T17:14:14.167Z,63.83
2017-11-06T17:16:41.620Z,63.91
2017-11-06T17:19:09.071Z,63.91
2017-11-06T17:21:36.528Z,64.47
2017-11-06T17:24:03.916Z,64.32
2017-11-06T17:26:31.360Z,64.77
2017-11-06T17:28:58.771Z,65.08
2017-11-06T17:31:26.192Z,65.51
2017-11-06T17:33:53.624Z,65.50
2017-11-06T17:36:21.011Z,65.28
2017-11-06T17:38:48.458Z,65.24
2017-11-06T17:41:15.895Z,65.22
2017-11-06T17:43:43.446Z,64.68
2017-11-06T17:46:10.874Z,64.71
2017-11-06T17:48:38.369Z,64.63
2017-11-06T17:51:05.782Z,64.60
2017-11-06T17:53:33.213Z,64.80
2017-11-06T17:56:00.646Z,64.93
2017-11-06T17:58:28.150Z,64.75
2017-11-06T18:00:55.615Z,64.97
2017-11-06T18:03:23.081Z,65.15
2017-11-06T18:05:50.532Z,65.08
2017-11-06T18:08:17.954Z,64.97
2017-11-06T18:10:45.430Z,65.03
2017-11-06T18:13:13.595Z,64.96
2017-11-06T18:15:41.169Z,65.12
2017-11-06T18:18:08.586Z,65.10
2017-11-06T18:20:36.037Z,65.13
2017-11-06T18:23:03.439Z,65.10
2017-11-06T18:25:30.959Z,65.23
2017-11-06T18:27:58.394Z,65.51
2017-11-06T18:30:25.843Z,65.60
2017-11-06T18:32:53.296Z,65.76
2017-11-06T18:35:20.683Z,65.92
2017-11-06T18:37:48.156Z,65.96
2017-11-06T18:40:15.599Z,66.42
2017-11-06T18:42:43.029Z,66.64
2017-11-06T18:45:10.463Z,66.64
2017-11-06T18:47:37.893Z,66.72
2017-11-06T18:50:05.351Z,66.83
2017-11-06T18:52:32.778Z,67.03
2017-11-06T18:55:00.239Z,67.43
2017-11-06T18:57:27.878Z,67.77
2017-11-06T18:59:55.368Z,67.67
2017-11-06T19:02:22.841Z,67.46
2017-11-06T19:04:51.171Z,67.42
2017-11-06T19:07:18.561Z,67.57
2017-11-06T19:09:46.063Z,67.80
2017-11-06T19:12:13.556Z,67.91
2017-11-06T19:14:40.971Z,68.28
2017-11-06T19:17:08.433Z,68.38
2017-11-06T19:19:35.875Z,68.94
2017-11-06T19:22:03.774Z,69.04
2017-11-06T19:24:31.280Z,69.21
2017-11-06T19:26:58.735Z,69.42
2017-11-06T19:29:26.171Z,69.73
2017-11-06T19:31:53.624Z,69.90
2017-11-06T19:34:21.059Z,69.88
2017-11-06T19:36:48.531Z,70.30
2017-11-06T19:39:15.997Z,70.41
2017-11-06T19:41:43.463Z,70.82
2017-11-06T19:44:10.892Z,71.29
2017-11-06T19:46:38.359Z,71.51
2017-11-06T19:49:05.794Z,72.07
2017-11-06T19:51:33.299Z,72.14
2017-11-06T19:54:00.764Z,72.00
2017-11-06T19:56:28.198Z,71.83
2017-11-06T19:58:55.649Z,71.80
2017-11-06T20:01:23.068Z,71.84
2017-11-06T20:03:50.544Z,71.58
2017-11-06T20:06:18.022Z,71.54
2017-11-06T20:08:45.526Z,71.29
2017-11-06T20:11:12.944Z,71.07
2017-11-06T20:13:40.394Z,71.42
2017-11-06T20:16:13.396Z,71.21
2017-11-06T20:18:41.061Z,71.43
2017-11-06T20:21:08.505Z,71.68
2017-11-06T20:23:36.805Z,71.35
2017-11-06T20:26:04.233Z,71.24
2017-11-06T20:28:31.638Z,71.71
2017-11-06T20:30:59.281Z,71.83
2017-11-06T20:33:26.715Z,72.10
2017-11-06T20:35:54.239Z,72.38
2017-11-06T20:38:21.741Z,72.42
2017-11-06T20:40:49.190Z,72.53
2017-11-06T20:43:16.860Z,73.15
2017-11-06T20:45:44.280Z,73.29
2017-11-06T20:48:11.730Z,73.04
2017-11-06T20:50:39.177Z,72.60
2017-11-06T20:53:06.569Z,72.71
2017-11-06T20:55:34.036Z,72.61
2017-11-06T20:58:01.443Z,72.40
2017-11-06T21:00:28.940Z,72.81
2017-11-06T21:02:56.506Z,73.16
2017-11-06T21:05:23.982Z,73.24
2017-11-06T21:07:51.423Z,73.72
2017-11-06T21:10:19.795Z,73.98
2017-11-06T21:12:47.445Z,74.28
2017-11-06T21:15:14.897Z,74.32
2017-11-06T21:17:42.600Z,74.18
2017-11-06T21:20:10.044Z,74.13
2017-11-06T21:22:37.697Z,74.46
2017-11-06T21:25:05.114Z,74.72
2017-11-06T21:27:32.569Z,74.51
2017-11-06T21:30:05.602Z,74.58
2017-11-06T21:32:33.170Z,74.19
2017-11-06T21:35:01.621Z,74.68
2017-11-06T21:37:29.049Z,75.13
2017-11-06T21:39:56.502Z,74.79
2017-11-06T21:42:24.018Z,74.38
2017-11-06T21:44:51.429Z,74.05
2017-11-06T21:47:18.893Z,73.79
2017-11-06T21:49:46.324Z,73.48
2017-11-06T21:52:13.803Z,73.29
2017-11-06T21:54:41.303Z,73.55
2017-11-06T21:57:08.706Z,73.28
2017-11-06T21:59:36.148Z,72.98
2017-11-06T22:02:03.576Z,73.90
2017-11-06T22:04:31.022Z,74.31
2017-11-06T22:06:58.487Z,74.21
2017-11-06T22:09:25.994Z,74.79
2017-11-06T22:11:53.456Z,75.30
2017-11-06T22:14:20.937Z,74.90
2017-11-06T22:16:48.394Z,75.29
2017-11-06T22:19:15.825Z,75.09
2017-11-06T22:21:43.248Z,74.67
2017-11-06T22:24:10.832Z,74.31
2017-11-06T22:26:38.244Z,74.23
2017-11-06T22:29:05.643Z,74.05
2017-11-06T22:31:33.092Z,74.26
2017-11-06T22:34:00.510Z,74.92
2017-11-06T22:36:27.948Z,75.81
2017-11-06T22:38:55.396Z,75.35
2017-11-06T22:41:22.820Z,75.81
2017-11-06T22:43:50.263Z,75.72
2017-11-06T22:46:17.674Z,75.17
2017-11-06T22:48:45.142Z,74.97
2017-11-06T22:51:12.550Z,74.45
2017-11-06T22:53:39.993Z,74.00
2017-11-06T22:56:07.417Z,74.01
2017-11-06T22:58:34.893Z,74.17
2017-11-06T23:01:02.343Z,74.18
2017-11-06T23:03:29.887Z,74.07
2017-11-06T23:05:57.290Z,73.76
2017-11-06T23:08:24.753Z,73.19
2017-11-06T23:10:52.209Z,73.47
2017-11-06T23:13:19.644Z,73.28
2017-11-06T23:15:47.098Z,73.22
2017-11-06T23:18:14.488Z,73.64
2017-11-06T23:20:41.919Z,73.61
2017-11-06T23:23:09.324Z,73.54
2017-11-06T23:25:36.789Z,73.45
2017-11-06T23:28:04.195Z,73.68
2017-11-06T23:30:31.596Z,73.72
2017-11-06T23:32:59.043Z,74.22
2017-11-06T23:35:27.475Z,74.26
2017-11-06T23:37:54.941Z,73.89
2017-11-06T23:40:22.351Z,73.80
2017-11-06T23:42:49.803Z,73.71
2017-11-06T23:45:17.234Z,73.58
2017-11-06T23:47:44.672Z,73.64
2017-11-06T23:50:12.984Z,73.81
2017-11-06T23:52:40.487Z,73.66
2017-11-06T23:55:07.910Z,73.52
2017-11-06T23:57:35.355Z,73.07
